Terminal Aerodrome Forecast
Issued by NWS Cleveland, OH

Home | Current Version | Previous Version | Graphics & Text | Print | Product List | Glossary On
Versions: 1 2 3 4 5 6 7 8 9 10 11 12 13 14 15 16 17 18 19 20 21 22 23 24 25
000
FTUS41 KCLE 230500
TAFCLE
TAF
KCLE 230528Z 2306/2412 27011KT P6SM VCSH SCT035 BKN060
      TEMPO 2306/2310 3SM -SHSN BKN030
     FM231200 29012G20KT P6SM VCSH BKN025 OVC040
     FM231600 29015G25KT P6SM VCSH BKN035 OVC050
     FM240000 31010KT P6SM BKN045
     FM240600 30008KT P6SM SCT040=

USA.gov is the U.S. government's official web portal to all federal, state and local government web resources and services.